createdAt,value
2019-05-05T00:00:49.431Z,99131.00
2019-05-05T00:03:34.281Z,99134.00
2019-05-05T00:06:06.869Z,99149.00
2019-05-05T00:08:36.778Z,99154.00
2019-05-05T00:11:30.778Z,99157.00
2019-05-05T00:14:21.833Z,99149.00
2019-05-05T00:16:58.364Z,99160.00
2019-05-05T00:19:33.045Z,99158.00
2019-05-05T00:21:59.296Z,99159.00
2019-05-05T00:24:27.928Z,99170.00
2019-05-05T00:26:57.104Z,99161.00
2019-05-05T00:29:25.530Z,99166.00
2019-05-05T00:31:54.701Z,99182.00
2019-05-05T00:34:24.487Z,99185.00
2019-05-05T00:36:55.245Z,99186.00
2019-05-05T00:39:25.492Z,99180.00
2019-05-05T00:41:55.476Z,99185.00
2019-05-05T00:44:24.712Z,99177.00
2019-05-05T00:47:09.641Z,99170.00
2019-05-05T00:49:46.385Z,99180.00
2019-05-05T00:52:11.099Z,99171.00
2019-05-05T00:54:39.735Z,99171.00
2019-05-05T00:57:08.397Z,99177.00
2019-05-05T00:59:36.875Z,99191.00
2019-05-05T01:02:16.551Z,99196.00
2019-05-05T01:04:58.430Z,99204.00
2019-05-05T01:07:27.430Z,99213.00
2019-05-05T01:09:56.106Z,99222.00
2019-05-05T01:12:26.140Z,99221.00
2019-05-05T01:14:55.371Z,99218.00
2019-05-05T01:17:25.269Z,99222.00
2019-05-05T01:20:03.144Z,99241.00
2019-05-05T01:22:27.189Z,99244.00
2019-05-05T01:24:56.240Z,99245.00
2019-05-05T01:27:25.446Z,99257.00
2019-05-05T01:29:54.677Z,99266.00
2019-05-05T01:32:28.023Z,99267.00
2019-05-05T01:34:56.835Z,99257.00
2019-05-05T01:37:45.069Z,99256.00
2019-05-05T01:40:29.395Z,99260.00
2019-05-05T01:42:57.891Z,99273.00
2019-05-05T01:45:26.925Z,99271.00
2019-05-05T01:47:55.462Z,99269.00
2019-05-05T01:50:24.827Z,99261.00
2019-05-05T01:52:55.456Z,99266.00
2019-05-05T01:55:25.214Z,99273.00
2019-05-05T01:57:54.462Z,99267.00
2019-05-05T02:00:25.243Z,99267.00
2019-05-05T02:02:55.360Z,99262.00
2019-05-05T02:05:24.464Z,99253.00
2019-05-05T02:07:55.350Z,99268.00
2019-05-05T02:10:25.632Z,99267.00
2019-05-05T02:12:55.233Z,99267.00
2019-05-05T02:15:25.062Z,99260.00
2019-05-05T02:17:55.040Z,99262.00
2019-05-05T02:20:51.681Z,99257.00
2019-05-05T02:23:20.209Z,99265.00
2019-05-05T02:25:49.912Z,99257.00
2019-05-05T02:28:18.826Z,99272.00
2019-05-05T02:31:05.402Z,99268.00
2019-05-05T02:33:35.387Z,99271.00
2019-05-05T02:36:05.576Z,99273.00
2019-05-05T02:38:35.559Z,99285.00
2019-05-05T02:41:05.207Z,99293.00
2019-05-05T02:43:35.637Z,99291.00
2019-05-05T02:46:25.400Z,99298.00
2019-05-05T02:48:57.789Z,99297.00
2019-05-05T02:51:28.225Z,99298.00
2019-05-05T02:53:59.677Z,99294.00
2019-05-05T02:56:35.925Z,99298.00
2019-05-05T02:59:08.278Z,99300.00
2019-05-05T03:01:44.471Z,99308.00
2019-05-05T03:04:14.155Z,99304.00
2019-05-05T03:06:47.955Z,99307.00
2019-05-05T03:09:19.879Z,99306.00
2019-05-05T03:11:54.003Z,99298.00
2019-05-05T03:14:25.440Z,99314.00
2019-05-05T03:16:54.881Z,99318.00
2019-05-05T03:19:25.301Z,99320.00
2019-05-05T03:21:56.533Z,99328.00
2019-05-05T03:24:25.307Z,99339.00
2019-05-05T03:26:54.207Z,99340.00
2019-05-05T03:29:24.559Z,99345.00
2019-05-05T03:31:56.250Z,99359.00
2019-05-05T03:34:24.094Z,99361.00
2019-05-05T03:36:53.710Z,99362.00
2019-05-05T03:39:28.043Z,99367.00
2019-05-05T03:42:28.665Z,99375.00
2019-05-05T03:45:00.957Z,99379.00
2019-05-05T03:47:30.456Z,99389.00
2019-05-05T03:49:59.200Z,99395.00
2019-05-05T03:52:28.649Z,99395.00
2019-05-05T03:54:57.505Z,99395.00
2019-05-05T03:57:26.314Z,99380.00
2019-05-05T03:59:55.798Z,99390.00
2019-05-05T04:02:44.404Z,99400.00
2019-05-05T04:05:31.515Z,99412.00
2019-05-05T04:08:01.242Z,99408.00
2019-05-05T04:10:29.701Z,99428.00
2019-05-05T04:12:59.750Z,99423.00
2019-05-05T04:15:30.963Z,99419.00
2019-05-05T04:18:17.076Z,99432.00
2019-05-05T04:20:45.695Z,99426.00
2019-05-05T04:23:16.303Z,99431.00
2019-05-05T04:25:44.802Z,99441.00
2019-05-05T04:28:13.763Z,99437.00
2019-05-05T04:30:44.489Z,99458.00
2019-05-05T04:33:14.293Z,99452.00
2019-05-05T04:35:44.405Z,99461.00
2019-05-05T04:38:13.917Z,99462.00
2019-05-05T04:40:43.612Z,99470.00
2019-05-05T04:43:14.124Z,99463.00
2019-05-05T04:45:43.666Z,99469.00
2019-05-05T04:48:17.576Z,99487.00
2019-05-05T04:51:08.937Z,99489.00
2019-05-05T04:54:03.876Z,99492.00
2019-05-05T04:56:34.304Z,99497.00
2019-05-05T04:59:04.068Z,99502.00
2019-05-05T05:01:33.719Z,99501.00
2019-05-05T05:04:24.195Z,99496.00
2019-05-05T05:06:55.723Z,99508.00
2019-05-05T05:09:24.390Z,99511.00
2019-05-05T05:11:54.735Z,99510.00
2019-05-05T05:14:24.808Z,99509.00
2019-05-05T05:16:55.826Z,99514.00
2019-05-05T05:19:24.241Z,99519.00
2019-05-05T05:22:01.319Z,99526.00
2019-05-05T05:24:25.373Z,99528.00
2019-05-05T05:26:55.531Z,99529.00
2019-05-05T05:29:24.379Z,99529.00
2019-05-05T05:31:53.585Z,99542.00
2019-05-05T05:34:23.860Z,99557.00
2019-05-05T05:36:53.653Z,99557.00
2019-05-05T05:39:35.727Z,99562.00
2019-05-05T05:42:05.552Z,99572.00
2019-05-05T05:45:04.105Z,99576.00
2019-05-05T05:47:50.657Z,99569.00
2019-05-05T05:50:29.659Z,99578.00
2019-05-05T05:52:58.347Z,99563.00
2019-05-05T05:55:26.765Z,99572.00
2019-05-05T05:57:55.140Z,99574.00
2019-05-05T06:00:23.788Z,99583.00
2019-05-05T06:02:54.424Z,99588.00
2019-05-05T06:05:23.803Z,99589.00
2019-05-05T06:07:54.467Z,99596.00
2019-05-05T06:10:26.663Z,99596.00
2019-05-05T06:12:54.631Z,99603.00
2019-05-05T06:15:24.554Z,99597.00
2019-05-05T06:17:54.479Z,99605.00
2019-05-05T06:20:23.843Z,99612.00
2019-05-05T06:22:53.575Z,99631.00
2019-05-05T06:25:26.565Z,99625.00
2019-05-05T06:27:54.925Z,99632.00
2019-05-05T06:30:24.428Z,99633.00
2019-05-05T06:32:54.468Z,99635.00
2019-05-05T06:35:24.437Z,99637.00
2019-05-05T06:37:54.254Z,99638.00
2019-05-05T06:40:41.814Z,99644.00
2019-05-05T06:43:23.137Z,99641.00
2019-05-05T06:45:54.511Z,99649.00
2019-05-05T06:48:23.748Z,99652.00
2019-05-05T06:50:54.442Z,99649.00
2019-05-05T06:53:23.937Z,99655.00
2019-05-05T06:55:54.256Z,99647.00
2019-05-05T06:58:24.163Z,99647.00
2019-05-05T07:00:54.303Z,99662.00
2019-05-05T07:03:24.335Z,99665.00
2019-05-05T07:05:53.939Z,99652.00
2019-05-05T07:08:24.393Z,99648.00
2019-05-05T07:10:54.868Z,99657.00
2019-05-05T07:13:24.429Z,99667.00
2019-05-05T07:15:54.808Z,99670.00
2019-05-05T07:18:24.815Z,99668.00
2019-05-05T07:20:54.474Z,99677.00
2019-05-05T07:23:24.596Z,99681.00
2019-05-05T07:25:55.174Z,99687.00
2019-05-05T07:28:23.775Z,99682.00
2019-05-05T07:30:54.592Z,99683.00
2019-05-05T07:33:23.845Z,99690.00
2019-05-05T07:36:15.443Z,99694.00
2019-05-05T07:38:44.312Z,99699.00
2019-05-05T07:41:14.089Z,99699.00
2019-05-05T07:43:43.754Z,99700.00
2019-05-05T07:46:13.596Z,99700.00
2019-05-05T07:48:44.214Z,99699.00
2019-05-05T07:51:14.204Z,99706.00
2019-05-05T07:53:44.194Z,99712.00
2019-05-05T07:56:14.495Z,99712.00
2019-05-05T07:58:43.879Z,99709.00
2019-05-05T08:01:14.144Z,99711.00
2019-05-05T08:03:44.579Z,99711.00
2019-05-05T08:06:14.487Z,99720.00
2019-05-05T08:08:44.276Z,99721.00
2019-05-05T08:11:14.707Z,99719.00
2019-05-05T08:13:44.295Z,99723.00
2019-05-05T08:16:30.054Z,99726.00
2019-05-05T08:19:31.768Z,99741.00
2019-05-05T08:22:00.447Z,99742.00
2019-05-05T08:24:47.188Z,99739.00
2019-05-05T08:27:27.747Z,99744.00
2019-05-05T08:30:03.046Z,99750.00
2019-05-05T08:32:35.692Z,99752.00
2019-05-05T08:35:05.985Z,99752.00
2019-05-05T08:37:34.664Z,99753.00
2019-05-05T08:40:05.741Z,99749.00
2019-05-05T08:42:34.260Z,99759.00
2019-05-05T08:45:04.601Z,99753.00
2019-05-05T08:47:34.586Z,99767.00
2019-05-05T08:50:04.226Z,99761.00
2019-05-05T08:52:34.270Z,99772.00
2019-05-05T08:55:04.674Z,99769.00
2019-05-05T08:57:34.178Z,99781.00
2019-05-05T09:00:04.876Z,99782.00
2019-05-05T09:02:35.970Z,99784.00
2019-05-05T09:05:04.359Z,99783.00
2019-05-05T09:07:33.671Z,99790.00
2019-05-05T09:10:03.876Z,99775.00
2019-05-05T09:12:33.935Z,99784.00
2019-05-05T09:15:04.429Z,99775.00
2019-05-05T09:17:33.630Z,99781.00
2019-05-05T09:20:04.568Z,99768.00
2019-05-05T09:22:34.840Z,99782.00
2019-05-05T09:25:24.052Z,99766.00
2019-05-05T09:27:58.372Z,99768.00
2019-05-05T09:30:44.328Z,99774.00
2019-05-05T09:33:14.224Z,99772.00
2019-05-05T09:35:43.751Z,99763.00
2019-05-05T09:38:14.680Z,99775.00
2019-05-05T09:40:44.039Z,99778.00
2019-05-05T09:43:14.743Z,99779.00
2019-05-05T09:45:44.260Z,99784.00
2019-05-05T09:48:13.904Z,99794.00
2019-05-05T09:50:43.635Z,99790.00
2019-05-05T09:53:14.338Z,99788.00
2019-05-05T09:55:44.306Z,99783.00
2019-05-05T09:58:13.746Z,99793.00
2019-05-05T10:00:44.671Z,99793.00
2019-05-05T10:03:14.583Z,99792.00
2019-05-05T10:05:43.769Z,99795.00
2019-05-05T10:08:14.308Z,99804.00
2019-05-05T10:10:44.250Z,99807.00
2019-05-05T10:13:14.874Z,99802.00
2019-05-05T10:15:44.338Z,99800.00
2019-05-05T10:18:14.195Z,99808.00
2019-05-05T10:20:42.976Z,99824.00
2019-05-05T10:23:11.377Z,99822.00
2019-05-05T10:25:44.778Z,99825.00
2019-05-05T10:28:15.399Z,99825.00
2019-05-05T10:30:43.974Z,99825.00
2019-05-05T10:33:14.225Z,99823.00
2019-05-05T10:35:43.831Z,99822.00
2019-05-05T10:38:14.288Z,99828.00
2019-05-05T10:40:44.667Z,99837.00
2019-05-05T10:43:14.812Z,99844.00
2019-05-05T10:45:44.302Z,99832.00
2019-05-05T10:48:14.369Z,99831.00
2019-05-05T10:50:44.412Z,99827.00
2019-05-05T10:53:13.724Z,99826.00
2019-05-05T10:55:44.850Z,99845.00
2019-05-05T10:58:13.805Z,99848.00
2019-05-05T11:00:50.068Z,99850.00
2019-05-05T11:03:18.927Z,99852.00
2019-05-05T11:05:47.637Z,99855.00
2019-05-05T11:08:17.454Z,99842.00
2019-05-05T11:10:46.213Z,99847.00
2019-05-05T11:13:15.325Z,99853.00
2019-05-05T11:15:44.421Z,99852.00
2019-05-05T11:18:14.793Z,99854.00
2019-05-05T11:20:45.802Z,99865.00
2019-05-05T11:23:15.252Z,99860.00
2019-05-05T11:25:44.608Z,99857.00
2019-05-05T11:28:13.567Z,99852.00
2019-05-05T11:30:44.219Z,99853.00
2019-05-05T11:33:30.975Z,99862.00
2019-05-05T11:36:13.702Z,99861.00
2019-05-05T11:38:44.418Z,99858.00
2019-05-05T11:41:14.374Z,99860.00
2019-05-05T11:43:43.113Z,99871.00
2019-05-05T11:46:13.958Z,99874.00
2019-05-05T11:48:43.918Z,99877.00
2019-05-05T11:51:14.923Z,99870.00
2019-05-05T11:53:44.698Z,99867.00
2019-05-05T11:56:15.926Z,99864.00
2019-05-05T11:58:44.533Z,99866.00
2019-05-05T12:01:13.822Z,99863.00
2019-05-05T12:03:44.345Z,99874.00
2019-05-05T12:06:14.709Z,99874.00
2019-05-05T12:08:45.880Z,99870.00
2019-05-05T12:11:15.024Z,99875.00
2019-05-05T12:13:44.076Z,99873.00
2019-05-05T12:16:14.541Z,99875.00
2019-05-05T12:18:44.836Z,99872.00
2019-05-05T12:21:14.914Z,99883.00
2019-05-05T12:23:44.435Z,99885.00
2019-05-05T12:26:35.484Z,99883.00
2019-05-05T12:29:07.328Z,99895.00
2019-05-05T12:31:41.855Z,99881.00
2019-05-05T12:34:10.465Z,99892.00
2019-05-05T12:36:38.968Z,99880.00
2019-05-05T12:39:14.160Z,99901.00
2019-05-05T12:41:43.663Z,99903.00
2019-05-05T12:44:19.994Z,99899.00
2019-05-05T12:46:56.635Z,99893.00
2019-05-05T12:49:25.473Z,99891.00
2019-05-05T12:51:54.489Z,99895.00
2019-05-05T12:54:24.523Z,99896.00
2019-05-05T12:56:53.990Z,99893.00
2019-05-05T12:59:25.686Z,99884.00
2019-05-05T13:01:54.817Z,99890.00
2019-05-05T13:04:24.587Z,99895.00
2019-05-05T13:06:54.082Z,99901.00
2019-05-05T13:09:24.380Z,99889.00
2019-05-05T13:11:54.160Z,99886.00
2019-05-05T13:14:22.810Z,99884.00
2019-05-05T13:16:53.919Z,99881.00
2019-05-05T13:19:37.214Z,99888.00
2019-05-05T13:22:27.158Z,99884.00
2019-05-05T13:25:15.618Z,99887.00
2019-05-05T13:27:44.502Z,99888.00
2019-05-05T13:30:13.438Z,99886.00
2019-05-05T13:32:44.076Z,99891.00
2019-05-05T13:35:14.350Z,99890.00
2019-05-05T13:37:44.363Z,99878.00
2019-05-05T13:40:13.224Z,99884.00
2019-05-05T13:42:43.877Z,99867.00
2019-05-05T13:45:34.195Z,99876.00
2019-05-05T13:48:03.617Z,99877.00
2019-05-05T13:50:38.153Z,99889.00
2019-05-05T13:53:06.812Z,99889.00
2019-05-05T13:55:35.447Z,99893.00
2019-05-05T13:58:04.482Z,99904.00
2019-05-05T14:00:33.815Z,99904.00
2019-05-05T14:03:03.932Z,99893.00
2019-05-05T14:05:34.401Z,99893.00
2019-05-05T14:08:04.251Z,99900.00
2019-05-05T14:10:33.432Z,99894.00
2019-05-05T14:13:03.692Z,99897.00
2019-05-05T14:15:34.160Z,99896.00
2019-05-05T14:18:03.786Z,99903.00
2019-05-05T14:20:34.508Z,99895.00
2019-05-05T14:23:04.882Z,99882.00
2019-05-05T14:25:33.513Z,99901.00
2019-05-05T14:28:03.872Z,99893.00
2019-05-05T14:31:01.810Z,99887.00
2019-05-05T14:33:49.097Z,99884.00
2019-05-05T14:36:40.044Z,99896.00
2019-05-05T14:39:10.124Z,99886.00
2019-05-05T14:41:38.787Z,99891.00
2019-05-05T14:44:07.491Z,99888.00
2019-05-05T14:46:36.700Z,99886.00
2019-05-05T14:49:05.859Z,99892.00
2019-05-05T14:51:34.847Z,99891.00
2019-05-05T14:54:04.787Z,99890.00
2019-05-05T14:56:36.449Z,99880.00
2019-05-05T14:59:05.043Z,99889.00
2019-05-05T15:01:34.399Z,99884.00
2019-05-05T15:04:04.353Z,99890.00
2019-05-05T15:06:38.807Z,99885.00
2019-05-05T15:09:33.592Z,99881.00
2019-05-05T15:12:20.956Z,99887.00
2019-05-05T15:14:49.471Z,99880.00
2019-05-05T15:17:17.754Z,99886.00
2019-05-05T15:19:46.235Z,99890.00
2019-05-05T15:22:15.125Z,99901.00
2019-05-05T15:24:44.864Z,99898.00
2019-05-05T15:27:13.207Z,99906.00
2019-05-05T15:29:43.615Z,99895.00
2019-05-05T15:32:12.192Z,99896.00
2019-05-05T15:34:43.877Z,99892.00
2019-05-05T15:37:14.310Z,99889.00
2019-05-05T15:39:44.163Z,99882.00
2019-05-05T15:42:12.769Z,99877.00
2019-05-05T15:44:43.766Z,99880.00
2019-05-05T15:47:12.563Z,99890.00
2019-05-05T15:49:40.963Z,99890.00
2019-05-05T15:52:09.593Z,99893.00
2019-05-05T15:54:38.251Z,99892.00
2019-05-05T15:57:08.774Z,99886.00
2019-05-05T15:59:37.531Z,99889.00
2019-05-05T16:02:06.171Z,99884.00
2019-05-05T16:04:34.610Z,99890.00
2019-05-05T16:07:04.602Z,99882.00
2019-05-05T16:09:33.234Z,99879.00
2019-05-05T16:12:03.786Z,99890.00
2019-05-05T16:14:33.803Z,99878.00
2019-05-05T16:17:24.594Z,99879.00
2019-05-05T16:20:07.991Z,99878.00
2019-05-05T16:22:56.442Z,99881.00
2019-05-05T16:25:26.417Z,99883.00
2019-05-05T16:27:55.082Z,99873.00
2019-05-05T16:30:23.789Z,99875.00
2019-05-05T16:32:54.998Z,99874.00
2019-05-05T16:35:24.931Z,99867.00
2019-05-05T16:37:53.503Z,99874.00
2019-05-05T16:40:25.285Z,99866.00
2019-05-05T16:42:54.354Z,99873.00
2019-05-05T16:45:24.686Z,99874.00
2019-05-05T16:47:54.551Z,99874.00
2019-05-05T16:50:25.060Z,99875.00
2019-05-05T16:53:03.811Z,99876.00
2019-05-05T16:55:54.373Z,99879.00
2019-05-05T16:58:24.052Z,99876.00
2019-05-05T17:00:54.404Z,99874.00
2019-05-05T17:03:23.969Z,99873.00
2019-05-05T17:05:54.599Z,99875.00
2019-05-05T17:08:24.517Z,99879.00
2019-05-05T17:10:53.189Z,99878.00
2019-05-05T17:13:29.000Z,99882.00
2019-05-05T17:16:07.157Z,99880.00
2019-05-05T17:19:04.735Z,99893.00
2019-05-05T17:21:53.724Z,99884.00
2019-05-05T17:24:23.939Z,99893.00
2019-05-05T17:26:55.085Z,99889.00
2019-05-05T17:29:24.049Z,99888.00
2019-05-05T17:31:54.089Z,99890.00
2019-05-05T17:34:24.641Z,99901.00
2019-05-05T17:36:55.418Z,99898.00
2019-05-05T17:39:26.003Z,99896.00
2019-05-05T17:42:14.232Z,99894.00
2019-05-05T17:44:58.487Z,99897.00
2019-05-05T17:47:34.372Z,99905.00
2019-05-05T17:50:40.330Z,99900.00
2019-05-05T17:53:28.365Z,99895.00
2019-05-05T17:55:57.463Z,99898.00
2019-05-05T17:58:27.639Z,99900.00
2019-05-05T18:00:59.505Z,99898.00
2019-05-05T18:03:28.187Z,99898.00
2019-05-05T18:06:16.766Z,99899.00
2019-05-05T18:08:48.272Z,99900.00
2019-05-05T18:11:22.036Z,99906.00
2019-05-05T18:13:54.880Z,99905.00
2019-05-05T18:16:26.830Z,99914.00
2019-05-05T18:18:55.001Z,99922.00
2019-05-05T18:21:23.761Z,99927.00
2019-05-05T18:23:54.597Z,99920.00
2019-05-05T18:26:24.340Z,99917.00
2019-05-05T18:28:54.167Z,99920.00
2019-05-05T18:31:24.252Z,99927.00
2019-05-05T18:33:54.326Z,99933.00
2019-05-05T18:36:23.153Z,99934.00
2019-05-05T18:38:54.038Z,99931.00
2019-05-05T18:41:37.041Z,99931.00
2019-05-05T18:44:16.702Z,99929.00
2019-05-05T18:46:47.552Z,99929.00
2019-05-05T18:49:16.241Z,99924.00
2019-05-05T18:51:45.128Z,99936.00
2019-05-05T18:54:13.775Z,99935.00
2019-05-05T18:56:43.885Z,99925.00
2019-05-05T18:59:12.687Z,99937.00
2019-05-05T19:01:54.278Z,99931.00
2019-05-05T19:04:32.224Z,99936.00
2019-05-05T19:07:06.956Z,99940.00
2019-05-05T19:09:35.683Z,99938.00
2019-05-05T19:12:04.226Z,99935.00
2019-05-05T19:14:34.873Z,99930.00
2019-05-05T19:17:04.531Z,99933.00
2019-05-05T19:19:34.519Z,99935.00
2019-05-05T19:22:08.544Z,99937.00
2019-05-05T19:24:37.040Z,99939.00
2019-05-05T19:27:05.631Z,99941.00
2019-05-05T19:29:34.763Z,99939.00
2019-05-05T19:32:04.092Z,99939.00
2019-05-05T19:34:35.091Z,99939.00
2019-05-05T19:37:03.930Z,99949.00
2019-05-05T19:39:34.560Z,99940.00
2019-05-05T19:42:04.820Z,99949.00
2019-05-05T19:44:33.911Z,99950.00
2019-05-05T19:47:14.340Z,99941.00
2019-05-05T19:49:48.191Z,99940.00
2019-05-05T19:52:16.856Z,99946.00
2019-05-05T19:54:47.580Z,99940.00
2019-05-05T19:57:16.073Z,99948.00
2019-05-05T19:59:44.804Z,99943.00
2019-05-05T20:02:13.441Z,99943.00
2019-05-05T20:04:44.339Z,99955.00
2019-05-05T20:07:13.992Z,99940.00
2019-05-05T20:09:43.613Z,99943.00
2019-05-05T20:12:14.630Z,99939.00
2019-05-05T20:14:44.229Z,99948.00
2019-05-05T20:17:27.114Z,99943.00
2019-05-05T20:19:56.153Z,99942.00
2019-05-05T20:22:24.747Z,99941.00
2019-05-05T20:24:54.105Z,99948.00
2019-05-05T20:27:23.559Z,99951.00
2019-05-05T20:29:54.274Z,99946.00
2019-05-05T20:32:29.727Z,99950.00
2019-05-05T20:35:19.758Z,99946.00
2019-05-05T20:37:53.937Z,99955.00
2019-05-05T20:40:28.653Z,99953.00
2019-05-05T20:42:57.250Z,99951.00
2019-05-05T20:45:28.102Z,99952.00
2019-05-05T20:47:56.536Z,99952.00
2019-05-05T20:50:25.497Z,99945.00
2019-05-05T20:52:54.192Z,99946.00
2019-05-05T20:55:22.930Z,99939.00
2019-05-05T20:57:53.560Z,99942.00
2019-05-05T21:00:23.876Z,99938.00
2019-05-05T21:02:53.811Z,99943.00
2019-05-05T21:05:24.149Z,99939.00
2019-05-05T21:07:52.767Z,99940.00
2019-05-05T21:10:21.181Z,99952.00
2019-05-05T21:12:49.684Z,99944.00
2019-05-05T21:15:18.547Z,99954.00
2019-05-05T21:17:47.191Z,99952.00
2019-05-05T21:20:16.184Z,99959.00
2019-05-05T21:23:03.669Z,99959.00
2019-05-05T21:25:37.077Z,99960.00
2019-05-05T21:28:05.894Z,99962.00
2019-05-05T21:30:36.448Z,99957.00
2019-05-05T21:33:05.244Z,99958.00
2019-05-05T21:35:34.824Z,99952.00
2019-05-05T21:38:04.707Z,99963.00
2019-05-05T21:40:35.825Z,99956.00
2019-05-05T21:43:05.178Z,99962.00
2019-05-05T21:45:34.674Z,99960.00
2019-05-05T21:48:06.456Z,99960.00
2019-05-05T21:50:40.153Z,99956.00
2019-05-05T21:53:18.029Z,99953.00
2019-05-05T21:56:21.647Z,99955.00
2019-05-05T21:58:50.360Z,99957.00
2019-05-05T22:01:20.965Z,99959.00
2019-05-05T22:03:49.498Z,99960.00
2019-05-05T22:06:18.313Z,99962.00
2019-05-05T22:08:47.537Z,99963.00
2019-05-05T22:11:16.346Z,99954.00
2019-05-05T22:13:45.037Z,99963.00
2019-05-05T22:16:13.783Z,99953.00
2019-05-05T22:18:44.724Z,99955.00
2019-05-05T22:21:35.705Z,99958.00
2019-05-05T22:24:17.523Z,99961.00
2019-05-05T22:26:46.325Z,99960.00
2019-05-05T22:29:16.886Z,99953.00
2019-05-05T22:31:45.495Z,99958.00
2019-05-05T22:34:14.709Z,99945.00
2019-05-05T22:36:44.820Z,99945.00
2019-05-05T22:39:16.649Z,99946.00
2019-05-05T22:41:46.538Z,99941.00
2019-05-05T22:44:14.837Z,99946.00
2019-05-05T22:46:43.664Z,99945.00
2019-05-05T22:49:14.583Z,99947.00
2019-05-05T22:51:44.735Z,99951.00
2019-05-05T22:54:14.963Z,99955.00
2019-05-05T22:56:44.921Z,99955.00
2019-05-05T22:59:14.200Z,99950.00
2019-05-05T23:01:42.872Z,99955.00
2019-05-05T23:04:23.985Z,99955.00
2019-05-05T23:07:00.141Z,99959.00
2019-05-05T23:09:30.046Z,99962.00
2019-05-05T23:11:58.479Z,99959.00
2019-05-05T23:14:27.458Z,99950.00
2019-05-05T23:17:16.897Z,99952.00
2019-05-05T23:19:51.272Z,99951.00
2019-05-05T23:22:29.587Z,99942.00
2019-05-05T23:25:04.171Z,99954.00
2019-05-05T23:27:48.882Z,99946.00
2019-05-05T23:30:18.867Z,99952.00
2019-05-05T23:32:48.066Z,99944.00
2019-05-05T23:35:17.080Z,99943.00
2019-05-05T23:37:46.121Z,99939.00
2019-05-05T23:40:21.838Z,99946.00
2019-05-05T23:42:54.060Z,99949.00
2019-05-05T23:45:24.890Z,99960.00
2019-05-05T23:47:54.455Z,99957.00
2019-05-05T23:50:23.443Z,99953.00
2019-05-05T23:52:54.317Z,99960.00
2019-05-05T23:55:23.989Z,99961.00
2019-05-05T23:57:54.688Z,99962.00
